createdAt,value
2019-02-08T00:01:37.613Z,96909.60
2019-02-08T00:04:06.418Z,96909.78
2019-02-08T00:06:35.568Z,96914.30
2019-02-08T00:09:44.236Z,96912.28
2019-02-08T00:12:32.277Z,96912.56
2019-02-08T00:15:01.232Z,96903.67
2019-02-08T00:18:09.723Z,96908.05
2019-02-08T00:20:38.380Z,96913.83
2019-02-08T00:26:01.902Z,96911.19
2019-02-08T00:28:30.621Z,96918.72
2019-02-08T00:31:18.598Z,96920.27
2019-02-08T00:33:47.425Z,96922.53
2019-02-08T00:36:16.182Z,96930.52
2019-02-08T00:38:44.866Z,96928.38
2019-02-08T00:41:13.512Z,96938.66
2019-02-08T00:43:42.267Z,96932.16
2019-02-08T00:46:10.932Z,96936.64
2019-02-08T00:48:39.646Z,96929.53
2019-02-08T00:51:08.303Z,96927.65
2019-02-08T00:53:37.004Z,96930.76
2019-02-08T00:56:45.662Z,96935.14
2019-02-08T00:59:16.016Z,96932.55
2019-02-08T01:01:44.778Z,96934.42
2019-02-08T01:04:13.480Z,96933.16
2019-02-08T01:06:42.138Z,96943.12
2019-02-08T01:09:10.952Z,96937.95
2019-02-08T01:12:19.399Z,96936.23
2019-02-08T01:14:48.081Z,96936.52
2019-02-08T01:17:35.967Z,96938.43
2019-02-08T01:20:44.438Z,96944.32
2019-02-08T01:23:13.139Z,96938.72
2019-02-08T01:25:43.559Z,96934.86
2019-02-08T01:28:12.206Z,96932.83
2019-02-08T01:30:40.852Z,96940.92
2019-02-08T01:33:09.547Z,96937.58
2019-02-08T01:35:38.446Z,96935.38
2019-02-08T01:38:07.154Z,96940.92
2019-02-08T01:41:15.572Z,96937.19
2019-02-08T01:44:03.386Z,96941.89
2019-02-08T01:46:51.313Z,96941.61
2019-02-08T01:49:19.989Z,96949.69
2019-02-08T01:52:07.929Z,96942.34
2019-02-08T01:54:36.618Z,96947.30
2019-02-08T01:59:52.878Z,96949.79
2019-02-08T02:02:40.808Z,96951.29
2019-02-08T02:05:09.622Z,96965.76
2019-02-08T02:07:38.270Z,96956.07
2019-02-08T02:10:27.440Z,96955.98
2019-02-08T02:12:56.161Z,96957.69
2019-02-08T02:15:44.229Z,96953.41
2019-02-08T02:18:52.719Z,96948.10
2019-02-08T02:21:21.371Z,96959.20
2019-02-08T02:26:37.801Z,96952.00
2019-02-08T02:29:06.529Z,96957.14
2019-02-08T02:32:14.984Z,96954.09
2019-02-08T02:34:43.772Z,96954.31
2019-02-08T02:37:12.518Z,96949.99
2019-02-08T02:39:41.286Z,96953.95
2019-02-08T02:42:10.047Z,96958.16
2019-02-08T02:44:38.823Z,96968.27
2019-02-08T02:55:44.784Z,96970.30
2019-02-08T02:58:13.496Z,96969.92
2019-02-08T03:01:21.994Z,96972.12
2019-02-08T03:03:50.770Z,96972.52
2019-02-08T03:09:26.372Z,96961.69
2019-02-08T03:11:55.092Z,96963.59
2019-02-08T03:14:23.789Z,96961.21
2019-02-08T03:17:04.286Z,96955.42
2019-02-08T03:19:33.063Z,96957.25
2019-02-08T03:22:01.804Z,96964.97
2019-02-08T03:29:45.603Z,96967.60
2019-02-08T03:32:14.386Z,96972.88
2019-02-08T03:34:43.174Z,96968.13
2019-02-08T03:37:11.906Z,96977.02
2019-02-08T03:39:40.674Z,96973.02
2019-02-08T03:42:09.331Z,96966.91
2019-02-08T03:44:38.104Z,96961.91
2019-02-08T03:47:06.770Z,96959.89
2019-02-08T03:49:54.729Z,96956.78
2019-02-08T03:52:42.641Z,96956.78
2019-02-08T03:58:44.859Z,96963.27
2019-02-08T04:01:13.585Z,96956.82
2019-02-08T04:04:22.096Z,96954.94
2019-02-08T04:06:50.792Z,96949.01
2019-02-08T04:09:19.505Z,96947.55
2019-02-08T04:11:48.209Z,96949.62
2019-02-08T04:14:16.857Z,96948.91
2019-02-08T04:16:45.624Z,96946.79
2019-02-08T04:19:14.327Z,96947.11
2019-02-08T04:21:43.049Z,96953.94
2019-02-08T04:27:06.683Z,96948.95
2019-02-08T04:29:35.456Z,96947.22
2019-02-08T04:32:04.197Z,96954.52
2019-02-08T04:37:27.972Z,96947.91
2019-02-08T04:39:56.636Z,96952.58
2019-02-08T04:42:25.362Z,96951.59
2019-02-08T04:44:54.073Z,96955.17
2019-02-08T04:47:22.837Z,96959.55
2019-02-08T04:49:51.618Z,96965.62
2019-02-08T04:52:20.370Z,96968.06
2019-02-08T04:54:49.137Z,96965.52
2019-02-08T04:57:17.869Z,96959.17
2019-02-08T04:59:46.563Z,96957.90
2019-02-08T05:02:15.290Z,96953.10
2019-02-08T05:04:44.034Z,96956.30
2019-02-08T05:07:12.747Z,96956.59
2019-02-08T05:09:42.606Z,96958.38
2019-02-08T05:12:11.930Z,96954.41
2019-02-08T05:14:40.700Z,96960.86
2019-02-08T05:17:28.663Z,96959.84
2019-02-08T05:19:57.358Z,96956.00
2019-02-08T05:22:45.326Z,96954.00
2019-02-08T05:25:53.753Z,96958.23
2019-02-08T05:30:57.072Z,96963.62
2019-02-08T05:33:25.761Z,96967.72
2019-02-08T05:35:54.578Z,96956.48
2019-02-08T05:38:23.294Z,96956.48
2019-02-08T05:40:52.086Z,96951.31
2019-02-08T05:43:20.869Z,96951.53
2019-02-08T05:48:23.331Z,96945.37
2019-02-08T05:50:52.115Z,96943.16
2019-02-08T05:53:20.899Z,96945.91
2019-02-08T05:58:25.393Z,96941.20
2019-02-08T06:03:43.618Z,96947.68
2019-02-08T06:06:31.526Z,96945.45
2019-02-08T06:09:00.299Z,96946.23
2019-02-08T06:11:29.097Z,96945.08
2019-02-08T06:13:57.857Z,96954.63
2019-02-08T06:16:26.819Z,96951.23
2019-02-08T06:18:55.602Z,96951.53
2019-02-08T06:21:24.271Z,96950.67
2019-02-08T06:23:52.968Z,96952.23
2019-02-08T06:26:21.782Z,96953.77
2019-02-08T06:28:50.488Z,96954.88
2019-02-08T06:31:19.219Z,96964.50
2019-02-08T06:33:47.954Z,96969.00
2019-02-08T06:36:16.804Z,96962.17
2019-02-08T06:38:45.538Z,96962.97
2019-02-08T06:41:33.500Z,96965.21
2019-02-08T06:44:02.166Z,96966.48
2019-02-08T06:46:30.886Z,96958.77
2019-02-08T06:48:59.583Z,96960.14
2019-02-08T06:51:28.329Z,96967.16
2019-02-08T06:57:03.807Z,96967.34
2019-02-08T07:02:27.051Z,96960.31
2019-02-08T07:05:14.893Z,96959.83
2019-02-08T07:08:02.688Z,96961.66
2019-02-08T07:10:50.519Z,96967.60
2019-02-08T07:13:38.369Z,96967.91
2019-02-08T07:16:26.159Z,96967.98
2019-02-08T07:19:14.028Z,96971.56
2019-02-08T07:22:01.850Z,96975.24
2019-02-08T07:24:49.681Z,96977.78
2019-02-08T07:27:37.481Z,96981.72
2019-02-08T07:36:21.634Z,96977.07
2019-02-08T07:39:30.070Z,96975.42
2019-02-08T07:42:38.574Z,96978.86
2019-02-08T07:45:47.022Z,96987.94
2019-02-08T07:48:55.473Z,96985.27
2019-02-08T07:54:39.264Z,96972.92
2019-02-08T08:00:16.325Z,96978.91
2019-02-08T08:03:24.833Z,96980.55
2019-02-08T08:06:33.359Z,96975.27
2019-02-08T08:09:41.807Z,96977.54
2019-02-08T08:12:50.307Z,96970.94
2019-02-08T08:19:07.042Z,96970.51
2019-02-08T08:22:15.531Z,96977.13
2019-02-08T08:25:23.992Z,96978.78
2019-02-08T08:28:11.930Z,96980.22
2019-02-08T08:34:09.726Z,96979.69
2019-02-08T08:37:18.284Z,96972.98
2019-02-08T08:40:25.549Z,96980.74
2019-02-08T08:43:32.726Z,96983.73
2019-02-08T08:46:39.963Z,96991.62
2019-02-08T08:49:48.584Z,96990.06
2019-02-08T08:52:55.818Z,96984.76
2019-02-08T08:56:04.251Z,96986.03
2019-02-08T08:59:11.491Z,96989.50
2019-02-08T09:02:19.992Z,96992.09
2019-02-08T09:05:27.280Z,96988.45
2019-02-08T09:08:35.773Z,96982.97
2019-02-08T09:11:43.069Z,96983.95
2019-02-08T09:14:50.323Z,96983.92
2019-02-08T09:17:57.557Z,96975.45
2019-02-08T09:21:06.033Z,96970.87
2019-02-08T09:24:13.256Z,96968.98
2019-02-08T09:27:20.547Z,96968.97
2019-02-08T09:30:27.845Z,96965.75
2019-02-08T09:33:35.082Z,96955.47
2019-02-08T09:36:47.332Z,96950.34
2019-02-08T09:39:52.647Z,96949.81
2019-02-08T09:42:59.826Z,96942.28
2019-02-08T09:46:07.053Z,96946.46
2019-02-08T09:49:14.241Z,96939.00
2019-02-08T09:52:22.800Z,96937.99
2019-02-08T09:55:30.019Z,96945.63
2019-02-08T09:58:38.520Z,96944.58
2019-02-08T10:01:45.763Z,96940.73
2019-02-08T10:04:53.057Z,96942.23
2019-02-08T10:08:00.322Z,96936.52
2019-02-08T10:11:08.801Z,96940.58
2019-02-08T10:14:16.049Z,96937.20
2019-02-08T10:17:24.572Z,96944.39
2019-02-08T10:20:31.806Z,96938.63
2019-02-08T10:23:38.995Z,96934.98
2019-02-08T10:26:46.236Z,96946.97
2019-02-08T10:29:53.468Z,96936.20
2019-02-08T10:33:00.631Z,96939.19
2019-02-08T10:42:09.697Z,96928.38
2019-02-08T10:45:18.166Z,96934.02
2019-02-08T10:48:25.508Z,96936.39
2019-02-08T10:51:32.741Z,96929.97
2019-02-08T10:54:39.949Z,96928.23
2019-02-08T10:57:47.177Z,96931.94
2019-02-08T11:00:54.374Z,96925.76
2019-02-08T11:04:02.879Z,96929.67
2019-02-08T11:06:52.259Z,96920.44
2019-02-08T11:09:59.508Z,96916.13
2019-02-08T11:13:07.140Z,96907.70
2019-02-08T11:16:14.404Z,96904.72
2019-02-08T11:19:21.623Z,96906.48
2019-02-08T11:22:30.076Z,96895.82
2019-02-08T11:24:58.767Z,96887.00
2019-02-08T11:27:27.524Z,96881.73
2019-02-08T11:29:56.257Z,96877.02
2019-02-08T11:32:26.627Z,96873.27
2019-02-08T11:34:55.455Z,96873.30
2019-02-08T11:37:24.120Z,96863.27
2019-02-08T11:39:52.896Z,96859.55
2019-02-08T11:42:21.578Z,96863.83
2019-02-08T11:44:50.291Z,96852.34
2019-02-08T11:47:19.030Z,96840.58
2019-02-08T11:50:07.018Z,96839.21
2019-02-08T11:52:35.753Z,96836.22
2019-02-08T11:55:25.187Z,96837.73
2019-02-08T11:57:53.892Z,96832.85
2019-02-08T12:03:31.164Z,96812.48
2019-02-08T12:05:59.860Z,96821.94
2019-02-08T12:08:28.703Z,96809.48
2019-02-08T12:10:57.415Z,96815.84
2019-02-08T12:13:26.135Z,96806.34
2019-02-08T12:15:54.861Z,96803.81
2019-02-08T12:18:23.596Z,96808.97
2019-02-08T12:20:52.340Z,96805.56
2019-02-08T12:23:21.064Z,96802.20
2019-02-08T12:25:49.765Z,96802.46
2019-02-08T12:28:18.476Z,96795.30
2019-02-08T12:31:26.957Z,96789.14
2019-02-08T12:33:55.621Z,96782.23
2019-02-08T12:39:19.385Z,96785.53
2019-02-08T12:41:48.051Z,96776.81
2019-02-08T12:44:36.108Z,96768.06
2019-02-08T12:47:04.890Z,96768.68
2019-02-08T12:49:33.616Z,96757.74
2019-02-08T12:52:02.354Z,96758.53
2019-02-08T12:54:31.139Z,96759.04
2019-02-08T12:56:59.851Z,96749.01
2019-02-08T12:59:28.573Z,96757.69
2019-02-08T13:01:57.265Z,96741.44
2019-02-08T13:04:26.052Z,96738.68
2019-02-08T13:06:54.749Z,96731.69
2019-02-08T13:09:42.769Z,96728.17
2019-02-08T13:12:11.556Z,96724.59
2019-02-08T13:14:40.228Z,96715.30
2019-02-08T13:17:08.933Z,96710.41
2019-02-08T13:19:37.598Z,96711.44
2019-02-08T13:22:06.374Z,96707.59
2019-02-08T13:24:35.037Z,96705.26
2019-02-08T13:27:03.752Z,96701.61
2019-02-08T13:29:32.412Z,96692.63
2019-02-08T13:32:20.549Z,96697.31
2019-02-08T13:35:29.244Z,96688.73
2019-02-08T13:38:38.190Z,96685.37
2019-02-08T13:41:07.008Z,96678.75
2019-02-08T13:43:35.783Z,96677.80
2019-02-08T13:46:04.564Z,96674.22
2019-02-08T13:48:33.343Z,96671.09
2019-02-08T13:51:02.273Z,96669.08
2019-02-08T13:53:50.233Z,96664.61
2019-02-08T13:56:19.104Z,96659.76
2019-02-08T13:58:47.909Z,96659.70
2019-02-08T14:01:16.604Z,96658.79
2019-02-08T14:04:04.634Z,96660.75
2019-02-08T14:06:33.423Z,96653.01
2019-02-08T14:11:57.182Z,96658.65
2019-02-08T14:14:25.843Z,96654.08
2019-02-08T14:16:54.528Z,96648.66
2019-02-08T14:19:23.315Z,96649.85
2019-02-08T14:21:52.104Z,96652.24
2019-02-08T14:24:20.771Z,96649.08
2019-02-08T14:26:49.540Z,96644.84
2019-02-08T14:29:18.199Z,96643.48
2019-02-08T14:31:47.148Z,96637.25
2019-02-08T14:34:15.865Z,96636.92
2019-02-08T14:36:44.637Z,96628.70
2019-02-08T14:39:13.364Z,96624.39
2019-02-08T14:41:42.075Z,96622.34
2019-02-08T14:44:10.855Z,96608.69
2019-02-08T14:46:39.657Z,96603.17
2019-02-08T14:49:08.418Z,96601.09
2019-02-08T14:51:37.191Z,96590.70
2019-02-08T14:54:06.098Z,96597.05
2019-02-08T14:56:34.904Z,96596.69
2019-02-08T14:59:03.639Z,96596.66
2019-02-08T15:01:32.359Z,96591.80
2019-02-08T15:04:01.145Z,96591.33
2019-02-08T15:06:29.927Z,96587.88
2019-02-08T15:08:58.706Z,96592.47
2019-02-08T15:11:27.696Z,96589.73
2019-02-08T15:13:56.360Z,96581.47
2019-02-08T15:16:25.075Z,96581.23
2019-02-08T15:18:53.745Z,96578.91
2019-02-08T15:21:22.483Z,96585.78
2019-02-08T15:23:51.174Z,96579.27
2019-02-08T15:26:20.002Z,96581.66
2019-02-08T15:28:48.664Z,96575.69
2019-02-08T15:31:17.459Z,96570.53
2019-02-08T15:33:46.300Z,96567.71
2019-02-08T15:36:15.086Z,96570.13
2019-02-08T15:39:03.113Z,96562.59
2019-02-08T15:41:31.944Z,96562.99
2019-02-08T15:44:00.678Z,96555.98
2019-02-08T15:46:29.384Z,96549.25
2019-02-08T15:48:58.126Z,96552.95
2019-02-08T15:51:26.915Z,96547.91
2019-02-08T15:53:55.717Z,96544.09
2019-02-08T15:56:43.710Z,96551.27
2019-02-08T15:59:12.490Z,96546.72
2019-02-08T16:01:41.227Z,96544.57
2019-02-08T16:04:21.816Z,96544.23
2019-02-08T16:06:50.631Z,96534.45
2019-02-08T16:09:59.470Z,96537.40
2019-02-08T16:12:28.300Z,96537.58
2019-02-08T16:14:57.041Z,96528.52
2019-02-08T16:17:25.760Z,96524.09
2019-02-08T16:19:54.500Z,96520.63
2019-02-08T16:22:23.155Z,96506.48
2019-02-08T16:24:51.980Z,96507.19
2019-02-08T16:29:55.106Z,96515.05
2019-02-08T16:32:23.762Z,96518.31
2019-02-08T16:35:11.829Z,96516.52
2019-02-08T16:37:40.678Z,96514.61
2019-02-08T16:40:47.871Z,96519.84
2019-02-08T16:43:16.596Z,96514.59
2019-02-08T16:46:25.047Z,96519.33
2019-02-08T16:48:53.961Z,96515.66
2019-02-08T16:51:22.662Z,96519.69
2019-02-08T16:53:53.618Z,96520.92
2019-02-08T16:56:21.903Z,96513.27
2019-02-08T16:58:57.837Z,96506.55
2019-02-08T17:01:26.808Z,96507.31
2019-02-08T17:03:55.526Z,96506.55
2019-02-08T17:06:24.240Z,96504.22
2019-02-08T17:12:00.936Z,96498.92
2019-02-08T17:14:29.686Z,96497.16
2019-02-08T17:16:58.386Z,96500.17
2019-02-08T17:19:27.138Z,96499.23
2019-02-08T17:21:55.939Z,96490.56
2019-02-08T17:24:24.647Z,96482.90
2019-02-08T17:26:53.307Z,96489.43
2019-02-08T17:29:21.993Z,96492.95
2019-02-08T17:31:50.681Z,96484.28
2019-02-08T17:34:19.827Z,96483.05
2019-02-08T17:36:48.489Z,96477.37
2019-02-08T17:39:17.455Z,96474.67
2019-02-08T17:41:46.174Z,96473.11
2019-02-08T17:44:34.199Z,96482.64
2019-02-08T17:47:02.896Z,96477.79
2019-02-08T17:49:31.720Z,96476.41
2019-02-08T17:52:00.451Z,96476.47
2019-02-08T17:54:29.177Z,96480.45
2019-02-08T17:56:57.946Z,96472.37
2019-02-08T17:59:26.712Z,96473.23
2019-02-08T18:01:55.450Z,96471.69
2019-02-08T18:04:24.226Z,96465.04
2019-02-08T18:06:53.010Z,96469.66
2019-02-08T18:12:09.789Z,96470.56
2019-02-08T18:14:38.525Z,96461.75
2019-02-08T18:17:26.559Z,96464.19
2019-02-08T18:19:55.216Z,96462.18
2019-02-08T18:22:24.088Z,96467.50
2019-02-08T18:24:52.849Z,96469.72
2019-02-08T18:27:21.722Z,96462.77
2019-02-08T18:29:50.538Z,96465.04
2019-02-08T18:32:19.293Z,96463.20
2019-02-08T18:34:47.987Z,96457.83
2019-02-08T18:37:16.729Z,96454.27
2019-02-08T18:39:45.565Z,96453.05
2019-02-08T18:42:14.328Z,96455.33
2019-02-08T18:44:43.028Z,96456.02
2019-02-08T18:47:31.097Z,96452.93
2019-02-08T18:50:18.938Z,96443.91
2019-02-08T18:52:47.579Z,96446.76
2019-02-08T18:55:16.346Z,96447.39
2019-02-08T18:57:45.010Z,96442.83
2019-02-08T19:00:53.556Z,96443.79
2019-02-08T19:04:02.005Z,96451.17
2019-02-08T19:06:30.774Z,96440.38
2019-02-08T19:08:59.437Z,96436.66
2019-02-08T19:11:47.267Z,96435.38
2019-02-08T19:14:35.141Z,96429.53
2019-02-08T19:19:38.194Z,96431.27
2019-02-08T19:22:06.960Z,96422.69
2019-02-08T19:24:35.667Z,96423.21
2019-02-08T19:27:04.498Z,96423.50
2019-02-08T19:29:52.354Z,96419.80
2019-02-08T19:32:40.416Z,96416.25
2019-02-08T19:35:48.906Z,96417.20
2019-02-08T19:38:17.610Z,96413.27
2019-02-08T19:41:26.063Z,96409.19
2019-02-08T19:43:54.837Z,96403.97
2019-02-08T19:46:23.509Z,96412.41
2019-02-08T19:48:52.222Z,96405.59
2019-02-08T19:51:20.940Z,96408.03
2019-02-08T19:53:49.607Z,96407.76
2019-02-08T19:56:18.476Z,96396.30
2019-02-08T19:59:06.259Z,96398.03
2019-02-08T20:04:09.191Z,96397.12
2019-02-08T20:06:37.916Z,96395.52
2019-02-08T20:09:46.589Z,96380.52
2019-02-08T20:12:15.232Z,96372.52
2019-02-08T20:14:44.004Z,96380.55
2019-02-08T20:17:12.780Z,96373.11
2019-02-08T20:19:41.443Z,96376.26
2019-02-08T20:22:10.355Z,96370.65
2019-02-08T20:24:58.312Z,96356.55
2019-02-08T20:27:46.291Z,96352.85
2019-02-08T20:30:54.746Z,96346.06
2019-02-08T20:33:23.521Z,96346.06
2019-02-08T20:35:52.238Z,96344.42
2019-02-08T20:38:20.949Z,96330.94
2019-02-08T20:41:29.393Z,96334.01
2019-02-08T20:43:58.103Z,96331.73
2019-02-08T20:51:48.595Z,96331.09
2019-02-08T20:54:17.343Z,96323.39
2019-02-08T20:56:46.135Z,96324.25
2019-02-08T20:59:15.009Z,96319.08
2019-02-08T21:01:43.923Z,96309.52
2019-02-08T21:04:31.761Z,96310.05
2019-02-08T21:07:00.467Z,96309.78
2019-02-08T21:09:29.187Z,96307.55
2019-02-08T21:12:17.222Z,96308.14
2019-02-08T21:14:45.931Z,96301.72
2019-02-08T21:17:14.670Z,96306.23
2019-02-08T21:19:43.372Z,96293.23
2019-02-08T21:22:12.034Z,96292.17
2019-02-08T21:25:00.011Z,96290.17
2019-02-08T21:27:28.705Z,96282.69
2019-02-08T21:29:57.449Z,96277.64
2019-02-08T21:32:26.248Z,96280.45
2019-02-08T21:34:55.026Z,96275.14
2019-02-08T21:37:23.689Z,96278.24
2019-02-08T21:39:52.385Z,96275.85
2019-02-08T21:42:21.156Z,96273.39
2019-02-08T21:44:49.861Z,96265.64
2019-02-08T21:47:18.591Z,96275.72
2019-02-08T21:49:47.307Z,96271.38
2019-02-08T21:52:16.044Z,96265.11
2019-02-08T21:57:19.286Z,96258.84
2019-02-08T21:59:48.066Z,96247.88
2019-02-08T22:02:16.721Z,96241.39
2019-02-08T22:04:45.453Z,96231.80
2019-02-08T22:07:14.111Z,96225.91
2019-02-08T22:10:22.617Z,96224.05
2019-02-08T22:12:51.264Z,96221.62
2019-02-08T22:15:40.200Z,96219.70
2019-02-08T22:21:04.100Z,96222.52
2019-02-08T22:26:20.446Z,96214.66
2019-02-08T22:29:14.000Z,96212.86
2019-02-08T22:31:38.810Z,96206.08
2019-02-08T22:36:55.083Z,96199.02
2019-02-08T22:39:23.743Z,96201.29
2019-02-08T22:41:52.441Z,96199.28
2019-02-08T22:44:40.398Z,96197.62
2019-02-08T22:49:56.670Z,96193.80
2019-02-08T22:52:44.618Z,96196.89
2019-02-08T22:55:53.140Z,96189.25
2019-02-08T22:58:41.150Z,96187.03
2019-02-08T23:01:29.652Z,96192.92
2019-02-08T23:03:58.350Z,96188.81
2019-02-08T23:06:44.279Z,96182.11
2019-02-08T23:08:57.756Z,96177.97
2019-02-08T23:14:34.593Z,96167.36
2019-02-08T23:17:03.259Z,96169.09
2019-02-08T23:19:31.992Z,96161.67
2019-02-08T23:25:07.734Z,96175.44
2019-02-08T23:27:36.437Z,96181.98
2019-02-08T23:30:44.931Z,96182.80
2019-02-08T23:33:13.761Z,96175.02
2019-02-08T23:35:43.328Z,96174.89
2019-02-08T23:38:14.165Z,96177.34
2019-02-08T23:40:42.994Z,96184.48
2019-02-08T23:43:11.694Z,96184.21
2019-02-08T23:45:40.360Z,96183.02
2019-02-08T23:48:09.840Z,96175.31
2019-02-08T23:50:38.597Z,96171.12
2019-02-08T23:53:47.083Z,96167.84
2019-02-08T23:56:17.355Z,96170.95
2019-02-08T23:59:26.245Z,96179.60
